Time;durP1;ratioP1;P1;durP2;ratioP2;P2;SDS_P1;SDS_P2;PMS_P1;PMS_P2;Temp;Humidity;BMP_temperature;BMP_pressure;BME280_temperature;BME280_humidity;BME280_pressure;Samples;Min_cycle;Max_cycle;Signal;HPM_P1;HPM_P2
2023/07/29 00:01:23;;;;;;;17.45;12.43;;;;;;;;;;10428666;28;20029;-88
2023/07/29 00:06:24;;;;;;;11.27;8.70;;;;;;;;;;10447043;28;20075;-88
2023/07/29 00:11:26;;;;;;;19.17;11.15;;;;;;;;;;10425549;28;20029;-87
2023/07/29 00:16:27;;;;;;;14.52;10.18;;;;;;;;;;10446356;28;20087;-87
2023/07/29 00:21:28;;;;;;;15.93;11.73;;;;;;;;;;10427533;28;20036;-83
2023/07/29 00:26:29;;;;;;;13.10;9.13;;;;;;;;;;10444973;28;20040;-86
2023/07/29 00:31:30;;;;;;;15.23;11.68;;;;;;;;;;10444684;28;20087;-86
2023/07/29 00:36:31;;;;;;;15.85;10.00;;;;;;;;;;10447278;28;20029;-86
2023/07/29 00:41:32;;;;;;;17.13;10.98;;;;;;;;;;10425797;28;20115;-87
2023/07/29 00:46:35;;;;;;;17.95;12.13;;;;;;;;;;10405708;28;20056;-88
2023/07/29 00:51:36;;;;;;;14.70;10.40;;;;;;;;;;10415596;28;20037;-86
2023/07/29 00:56:37;;;;;;;23.80;13.48;;;;;;;;;;10381441;28;20033;-86
2023/07/29 01:01:39;;;;;;;22.50;14.52;;;;;;;;;;10403277;28;20374;-86
2023/07/29 01:07:00;;;;;;;24.17;15.98;;;;;;;;;;10386311;28;20053;-86
2023/07/29 01:12:37;;;;;;;20.50;14.02;;;;;;;;;;10404081;28;20037;-87
2023/07/29 01:17:42;;;;;;;17.50;13.95;;;;;;;;;;10264826;28;20505;-90
2023/07/29 01:22:44;;;;;;;29.48;18.83;;;;;;;;;;10394528;28;20034;-88
2023/07/29 01:27:46;;;;;;;27.85;17.33;;;;;;;;;;10397942;28;20580;-89
2023/07/29 01:32:54;;;;;;;21.60;16.63;;;;;;;;;;10409718;28;20029;-88
2023/07/29 01:38:00;;;;;;;20.83;16.33;;;;;;;;;;10402243;28;20025;-87
2023/07/29 01:43:01;;;;;;;22.38;16.85;;;;;;;;;;10426327;28;20124;-87
2023/07/29 01:48:02;;;;;;;22.02;15.85;;;;;;;;;;10441528;28;20029;-87
2023/07/29 01:53:03;;;;;;;19.70;14.68;;;;;;;;;;10427158;28;20124;-87
2023/07/29 01:58:04;;;;;;;25.70;15.88;;;;;;;;;;10442898;28;20025;-87
2023/07/29 02:03:05;;;;;;;18.08;13.63;;;;;;;;;;10430105;28;20033;-88
2023/07/29 02:08:06;;;;;;;25.77;16.42;;;;;;;;;;10443606;28;20031;-87
2023/07/29 02:13:07;;;;;;;16.63;13.57;;;;;;;;;;10424267;28;20384;-87
2023/07/29 02:18:08;;;;;;;24.90;16.35;;;;;;;;;;10441784;28;20040;-87
2023/07/29 02:23:09;;;;;;;19.23;14.02;;;;;;;;;;10441554;28;20041;-86
2023/07/29 02:28:10;;;;;;;18.75;14.30;;;;;;;;;;10425502;28;20029;-86
2023/07/29 02:33:11;;;;;;;18.92;13.88;;;;;;;;;;10444988;28;20032;-86
2023/07/29 02:38:12;;;;;;;19.33;14.60;;;;;;;;;;10449586;28;20468;-86
2023/07/29 02:43:13;;;;;;;20.08;14.07;;;;;;;;;;10432063;28;20049;-87
2023/07/29 02:48:14;;;;;;;16.13;11.98;;;;;;;;;;10449515;28;20491;-87
2023/07/29 02:53:15;;;;;;;18.92;14.38;;;;;;;;;;10437902;28;20171;-86
2023/07/29 02:58:16;;;;;;;31.50;17.90;;;;;;;;;;10450545;28;20473;-87
2023/07/29 03:03:19;;;;;;;24.08;17.95;;;;;;;;;;10433743;28;20091;-86
2023/07/29 03:08:20;;;;;;;28.33;18.92;;;;;;;;;;10448385;28;20556;-87
2023/07/29 03:13:21;;;;;;;31.35;22.02;;;;;;;;;;10449608;28;20039;-87
2023/07/29 03:18:22;;;;;;;25.10;18.88;;;;;;;;;;10448855;28;20076;-86
2023/07/29 03:23:23;;;;;;;27.75;17.52;;;;;;;;;;10432120;28;20076;-87
2023/07/29 03:28:29;;;;;;;25.08;17.20;;;;;;;;;;10448183;28;20029;-87
2023/07/29 03:33:30;;;;;;;24.30;17.35;;;;;;;;;;10448733;28;20691;-87
2023/07/29 03:38:32;;;;;;;16.63;13.15;;;;;;;;;;10447473;28;20556;-87
2023/07/29 03:43:33;;;;;;;31.08;18.30;;;;;;;;;;10447351;28;20051;-87
2023/07/29 03:48:34;;;;;;;23.77;16.63;;;;;;;;;;10446427;28;20044;-87
2023/07/29 03:53:35;;;;;;;26.83;18.67;;;;;;;;;;10446847;28;20090;-87
2023/07/29 03:58:36;;;;;;;23.73;16.60;;;;;;;;;;10447258;28;20036;-86
2023/07/29 04:03:37;;;;;;;19.55;14.27;;;;;;;;;;10428948;28;20094;-86
2023/07/29 04:08:39;;;;;;;20.08;16.00;;;;;;;;;;10447229;28;20043;-87
2023/07/29 04:13:40;;;;;;;22.67;14.60;;;;;;;;;;10426795;28;20041;-87
2023/07/29 04:18:41;;;;;;;26.00;16.58;;;;;;;;;;10421171;28;20664;-86
2023/07/29 04:23:42;;;;;;;20.83;14.55;;;;;;;;;;10434615;28;20076;-86
2023/07/29 04:28:43;;;;;;;23.02;16.05;;;;;;;;;;10444464;28;20021;-87
2023/07/29 04:33:44;;;;;;;20.88;14.95;;;;;;;;;;10432720;28;20064;-87
2023/07/29 04:38:45;;;;;;;24.45;17.48;;;;;;;;;;10436412;28;20043;-86
2023/07/29 04:43:46;;;;;;;18.98;14.18;;;;;;;;;;10444213;28;20061;-87
2023/07/29 04:48:47;;;;;;;20.67;15.02;;;;;;;;;;10445015;28;20087;-87
2023/07/29 04:53:48;;;;;;;27.13;19.70;;;;;;;;;;10444819;28;20439;-86
2023/07/29 04:58:49;;;;;;;37.80;27.50;;;;;;;;;;10425646;28;20124;-87
2023/07/29 05:03:50;;;;;;;32.53;22.63;;;;;;;;;;10446482;28;20040;-87
2023/07/29 05:08:51;;;;;;;26.77;21.00;;;;;;;;;;10426619;28;20040;-86
2023/07/29 05:13:52;;;;;;;24.10;17.30;;;;;;;;;;10442458;28;20485;-87
2023/07/29 05:18:53;;;;;;;21.38;16.13;;;;;;;;;;10438172;28;20043;-87
2023/07/29 05:23:54;;;;;;;19.10;15.48;;;;;;;;;;10444450;28;20063;-87
2023/07/29 05:28:55;;;;;;;19.75;15.98;;;;;;;;;;10441295;28;20033;-87
2023/07/29 05:33:56;;;;;;;21.85;15.05;;;;;;;;;;10443384;28;20033;-88
2023/07/29 05:38:57;;;;;;;16.40;12.63;;;;;;;;;;10442861;28;20037;-85
2023/07/29 05:43:58;;;;;;;13.40;10.18;;;;;;;;;;10443554;28;20091;-85
2023/07/29 05:48:59;;;;;;;13.07;9.90;;;;;;;;;;10426116;28;20636;-87
2023/07/29 05:54:00;;;;;;;10.60;8.07;;;;;;;;;;10442616;28;20040;-86
2023/07/29 05:59:01;;;;;;;15.07;8.07;;;;;;;;;;10424833;28;20494;-87
2023/07/29 06:04:02;;;;;;;9.10;7.80;;;;;;;;;;10424719;28;20512;-85
2023/07/29 06:09:03;;;;;;;9.25;6.28;;;;;;;;;;10428639;28;20041;-86
2023/07/29 06:14:04;;;;;;;8.00;6.53;;;;;;;;;;10442995;28;20124;-86
2023/07/29 06:19:15;;;;;;;8.68;6.72;;;;;;;;;;10451561;28;20476;-86
2023/07/29 06:24:16;;;;;;;8.93;5.70;;;;;;;;;;10443828;28;20033;-87
2023/07/29 06:29:17;;;;;;;7.63;5.55;;;;;;;;;;10447731;28;20025;-89
2023/07/29 06:34:18;;;;;;;6.95;5.63;;;;;;;;;;10432504;28;20575;-87
2023/07/29 06:39:19;;;;;;;8.50;4.72;;;;;;;;;;10433389;28;20033;-89
2023/07/29 06:44:20;;;;;;;7.43;5.40;;;;;;;;;;10436271;28;20048;-87
2023/07/29 06:49:21;;;;;;;6.03;5.10;;;;;;;;;;10449859;28;20068;-87
2023/07/29 06:54:26;;;;;;;7.45;4.45;;;;;;;;;;10418911;28;20085;-87
2023/07/29 06:59:27;;;;;;;6.63;4.10;;;;;;;;;;10435195;28;20633;-88
2023/07/29 07:04:28;;;;;;;6.20;4.35;;;;;;;;;;10433833;28;20041;-87
2023/07/29 07:09:29;;;;;;;5.00;3.95;;;;;;;;;;10449003;28;20041;-83
2023/07/29 07:14:30;;;;;;;7.55;4.03;;;;;;;;;;10446052;28;20063;-86
2023/07/29 07:19:31;;;;;;;4.55;3.50;;;;;;;;;;10431382;28;20594;-86
2023/07/29 07:24:32;;;;;;;4.60;2.67;;;;;;;;;;10431762;28;20385;-90
2023/07/29 07:29:33;;;;;;;3.92;2.90;;;;;;;;;;10432059;28;20573;-87
2023/07/29 07:34:34;;;;;;;5.22;3.13;;;;;;;;;;10445766;28;20032;-87
2023/07/29 07:39:35;;;;;;;3.22;2.90;;;;;;;;;;10431516;28;20032;-89
2023/07/29 07:44:37;;;;;;;3.03;2.20;;;;;;;;;;10436511;28;20748;-86
2023/07/29 07:49:38;;;;;;;2.92;2.30;;;;;;;;;;10414764;28;20208;-87
2023/07/29 07:54:39;;;;;;;7.45;2.72;;;;;;;;;;10447082;28;20484;-85
2023/07/29 07:59:40;;;;;;;3.90;2.63;;;;;;;;;;10456940;28;20033;-85
2023/07/29 08:04:41;;;;;;;2.53;2.10;;;;;;;;;;10443382;28;20135;-88
2023/07/29 08:09:42;;;;;;;2.65;2.40;;;;;;;;;;10435869;28;20033;-87
2023/07/29 08:14:43;;;;;;;4.40;2.38;;;;;;;;;;10446006;28;20404;-87
2023/07/29 08:19:44;;;;;;;5.07;2.65;;;;;;;;;;10437007;28;20036;-87
2023/07/29 08:24:45;;;;;;;5.28;2.70;;;;;;;;;;10459422;28;20433;-85
2023/07/29 08:29:47;;;;;;;3.25;2.28;;;;;;;;;;10440367;28;20025;-87
2023/07/29 08:34:48;;;;;;;3.85;2.40;;;;;;;;;;10461901;28;20029;-86
2023/07/29 08:39:49;;;;;;;5.15;2.55;;;;;;;;;;10449572;28;20025;-87
2023/07/29 08:50:37;;;;;;;4.68;2.63;;;;;;;;;;10388187;28;20030;-84
2023/07/29 08:55:40;;;;;;;3.08;2.70;;;;;;;;;;10402267;28;20706;-86
2023/07/29 09:00:41;;;;;;;2.15;1.95;;;;;;;;;;10381304;28;20032;-86
2023/07/29 09:05:42;;;;;;;2.38;2.05;;;;;;;;;;10405367;28;20083;-84
2023/07/29 09:10:43;;;;;;;4.97;2.40;;;;;;;;;;10416257;28;20159;-84
2023/07/29 09:15:44;;;;;;;7.40;2.67;;;;;;;;;;10427262;28;20025;-86
2023/07/29 09:20:49;;;;;;;3.40;2.22;;;;;;;;;;10419863;28;20040;-85
2023/07/29 09:25:50;;;;;;;4.03;2.00;;;;;;;;;;10385360;28;20041;-85
2023/07/29 09:30:51;;;;;;;2.13;1.92;;;;;;;;;;10411992;28;20042;-85
2023/07/29 09:35:52;;;;;;;1.90;1.67;;;;;;;;;;10393939;28;20060;-85
2023/07/29 09:40:58;;;;;;;1.95;1.67;;;;;;;;;;10385490;28;20044;-85
2023/07/29 09:46:03;;;;;;;2.00;1.80;;;;;;;;;;10454143;28;20052;-85
2023/07/29 09:51:10;;;;;;;1.90;1.73;;;;;;;;;;10457614;28;20025;-87
2023/07/29 09:56:12;;;;;;;1.63;1.42;;;;;;;;;;10454201;28;20543;-88
2023/07/29 10:01:14;;;;;;;4.60;2.08;;;;;;;;;;10434544;28;20091;-86
2023/07/29 10:06:15;;;;;;;3.88;1.55;;;;;;;;;;10427500;28;20041;-86
2023/07/29 10:17:27;;;;;;;2.97;2.10;;;;;;;;;;10445919;28;20045;-87
2023/07/29 10:22:38;;;;;;;2.20;2.00;;;;;;;;;;10422012;28;20040;-86
2023/07/29 10:27:44;;;;;;;2.47;1.85;;;;;;;;;;10431588;28;20106;-84
2023/07/29 11:00:44;;;;;;;1.60;1.50;;;;;;;;;;10394942;23;20052;-82
2023/07/29 11:16:02;;;;;;;2.55;1.50;;;;;;;;;;10311135;23;20087;-83
2023/07/29 11:21:04;;;;;;;1.63;1.45;;;;;;;;;;10126566;29;20068;-85
2023/07/29 11:26:05;;;;;;;3.08;2.03;;;;;;;;;;10110107;29;20533;-85
2023/07/29 11:31:06;;;;;;;3.05;2.55;;;;;;;;;;10110602;29;20401;-84
2023/07/29 11:36:35;;;;;;;3.00;2.47;;;;;;;;;;10127732;29;20032;-84
2023/07/29 11:41:36;;;;;;;5.40;2.65;;;;;;;;;;10116815;29;20096;-83
2023/07/29 11:46:37;;;;;;;4.40;2.90;;;;;;;;;;10095284;29;20056;-84
2023/07/29 11:51:39;;;;;;;4.25;2.80;;;;;;;;;;10106647;29;20040;-85
2023/07/29 12:07:54;;;;;;;1.75;1.65;;;;;;;;;;11518386;23;20064;-85
2023/07/29 12:12:55;;;;;;;2.83;1.70;;;;;;;;;;10165609;29;20119;-84
2023/07/29 12:17:57;;;;;;;2.90;1.50;;;;;;;;;;10144774;29;20385;-83
2023/07/29 12:23:05;;;;;;;2.17;1.92;;;;;;;;;;10148326;29;20599;-83
2023/07/29 12:28:06;;;;;;;1.50;1.40;;;;;;;;;;10159153;29;20039;-84
2023/07/29 12:33:07;;;;;;;2.35;1.70;;;;;;;;;;10162755;29;20103;-84
2023/07/29 12:38:08;;;;;;;3.17;2.30;;;;;;;;;;10132499;29;20036;-85
2023/07/29 12:43:10;;;;;;;1.98;1.80;;;;;;;;;;10160584;29;20117;-85
2023/07/29 12:48:11;;;;;;;1.63;1.50;;;;;;;;;;10165056;29;20592;-81
2023/07/29 12:53:12;;;;;;;1.85;1.65;;;;;;;;;;10162179;29;20036;-84
2023/07/29 12:58:13;;;;;;;2.38;1.90;;;;;;;;;;10160344;29;20512;-82
2023/07/29 13:03:14;;;;;;;2.75;2.15;;;;;;;;;;10164186;29;20069;-84
2023/07/29 13:08:15;;;;;;;2.08;1.67;;;;;;;;;;10145869;29;20568;-83
2023/07/29 13:13:16;;;;;;;2.20;2.00;;;;;;;;;;10131400;29;20028;-84
2023/07/29 13:18:17;;;;;;;1.77;1.67;;;;;;;;;;10109020;29;20033;-85
2023/07/29 13:23:18;;;;;;;2.80;2.00;;;;;;;;;;10118042;29;20040;-84
2023/07/29 13:28:19;;;;;;;1.83;1.73;;;;;;;;;;10120521;29;20028;-84
2023/07/29 13:33:20;;;;;;;2.80;1.90;;;;;;;;;;10126169;29;20032;-85
2023/07/29 13:38:22;;;;;;;2.83;2.05;;;;;;;;;;10121277;29;20032;-84
2023/07/29 13:43:23;;;;;;;2.85;1.70;;;;;;;;;;10127045;29;20044;-85
2023/07/29 13:48:24;;;;;;;1.90;1.80;;;;;;;;;;10123691;29;20044;-86
2023/07/29 13:53:25;;;;;;;2.38;1.70;;;;;;;;;;10124604;29;20401;-86
2023/07/29 13:58:27;;;;;;;2.55;1.50;;;;;;;;;;10121084;29;20032;-84
2023/07/29 14:03:28;;;;;;;1.80;1.50;;;;;;;;;;10118244;29;20055;-85
2023/07/29 14:08:29;;;;;;;1.25;1.15;;;;;;;;;;10113736;29;20084;-84
2023/07/29 14:13:30;;;;;;;2.28;1.70;;;;;;;;;;10108042;29;20060;-85
2023/07/29 14:18:31;;;;;;;1.75;1.25;;;;;;;;;;10125445;29;20591;-85
2023/07/29 14:23:32;;;;;;;2.13;1.58;;;;;;;;;;10123768;29;20489;-84
2023/07/29 14:28:33;;;;;;;1.85;1.40;;;;;;;;;;10127849;29;20397;-84
2023/07/29 14:33:34;;;;;;;2.55;1.70;;;;;;;;;;10130945;29;20036;-84
2023/07/29 14:38:36;;;;;;;2.33;1.80;;;;;;;;;;10130955;29;20045;-84
2023/07/29 14:43:37;;;;;;;2.22;1.65;;;;;;;;;;10130876;29;20127;-83
2023/07/29 14:48:38;;;;;;;2.60;1.10;;;;;;;;;;10130890;29;20037;-84
2023/07/29 14:53:39;;;;;;;2.65;1.10;;;;;;;;;;10129830;29;20040;-84
2023/07/29 14:58:42;;;;;;;1.23;1.00;;;;;;;;;;10133458;29;20052;-83
2023/07/29 15:03:43;;;;;;;6.20;3.90;;;;;;;;;;10126282;29;20044;-84
2023/07/29 15:08:44;;;;;;;2.42;1.20;;;;;;;;;;10118910;29;20095;-84
2023/07/29 15:13:45;;;;;;;1.05;1.00;;;;;;;;;;10108638;29;20037;-84
2023/07/29 15:18:46;;;;;;;1.10;1.00;;;;;;;;;;10129675;29;20807;-84
2023/07/29 15:23:47;;;;;;;2.30;1.83;;;;;;;;;;10116232;29;20044;-85
2023/07/29 15:28:48;;;;;;;4.07;2.20;;;;;;;;;;10128174;29;20029;-84
2023/07/29 15:33:49;;;;;;;7.80;3.40;;;;;;;;;;10129559;29;20048;-84
2023/07/29 15:38:50;;;;;;;1.40;1.30;;;;;;;;;;10124635;29;20037;-85
2023/07/29 15:43:51;;;;;;;1.13;1.02;;;;;;;;;;10128337;29;20124;-84
2023/07/29 15:48:52;;;;;;;1.90;1.40;;;;;;;;;;10118380;29;20312;-84
2023/07/29 15:53:54;;;;;;;2.70;1.90;;;;;;;;;;10109920;29;20025;-84
2023/07/29 15:58:55;;;;;;;1.63;1.50;;;;;;;;;;10126168;29;20032;-83
2023/07/29 16:03:56;;;;;;;2.58;1.38;;;;;;;;;;10127627;29;20048;-84
2023/07/29 16:08:59;;;;;;;4.22;1.88;;;;;;;;;;10123080;29;20052;-84
2023/07/29 16:14:00;;;;;;;3.97;1.95;;;;;;;;;;10110428;29;20052;-83
2023/07/29 16:19:01;;;;;;;5.57;2.13;;;;;;;;;;10111405;29;20434;-83
2023/07/29 16:24:33;;;;;;;;;;;;;;;;;;;;;
2023/07/29 16:29:34;;;;;;;2.05;1.60;;;;;;;;;;10118461;29;20048;-83
2023/07/29 16:34:35;;;;;;;5.63;1.73;;;;;;;;;;10103000;29;20040;-84
2023/07/29 16:39:36;;;;;;;1.85;1.45;;;;;;;;;;10123948;29;20036;-84
2023/07/29 16:44:37;;;;;;;2.65;1.58;;;;;;;;;;10124277;29;20048;-84
2023/07/29 16:49:39;;;;;;;2.25;1.55;;;;;;;;;;10124554;29;20032;-85
2023/07/29 16:54:40;;;;;;;2.28;1.48;;;;;;;;;;10122234;29;20040;-84
2023/07/29 16:59:41;;;;;;;2.45;1.63;;;;;;;;;;10124662;29;20052;-84
2023/07/29 17:04:42;;;;;;;2.28;1.63;;;;;;;;;;10122852;29;20049;-85
2023/07/29 17:09:47;;;;;;;8.98;6.20;;;;;;;;;;10154565;29;20056;-83
2023/07/29 17:14:48;;;;;;;4.43;3.42;;;;;;;;;;10161569;29;20032;-84
2023/07/29 17:19:49;;;;;;;4.13;2.03;;;;;;;;;;10159263;29;20024;-87
2023/07/29 17:25:12;;;;;;;3.28;1.90;;;;;;;;;;10134567;29;20552;-86
2023/07/29 17:30:13;;;;;;;1.60;1.25;;;;;;;;;;10141419;29;20129;-83
2023/07/29 17:35:14;;;;;;;1.33;1.23;;;;;;;;;;10163331;29;20508;-82
2023/07/29 17:40:15;;;;;;;5.10;3.00;;;;;;;;;;10146323;29;20032;-83
2023/07/29 18:08:36;;;;;;;4.32;2.42;;;;;;;;;;10208558;28;20043;-82
2023/07/29 18:13:37;;;;;;;3.28;1.85;;;;;;;;;;10171258;29;20028;-83
2023/07/29 18:19:09;;;;;;;2.63;1.50;;;;;;;;;;10172180;29;20039;-84
2023/07/29 18:24:32;;;;;;;2.60;1.83;;;;;;;;;;10156765;29;20400;-83
2023/07/29 18:29:45;;;;;;;3.05;1.63;;;;;;;;;;10165073;29;20027;-85
2023/07/29 18:34:46;;;;;;;1.20;1.10;;;;;;;;;;10178768;29;20028;-87
2023/07/29 18:39:53;;;;;;;3.55;1.20;;;;;;;;;;10172700;29;20046;-85
2023/07/29 18:44:55;;;;;;;1.35;0.93;;;;;;;;;;10187404;29;20130;-85
2023/07/29 18:49:56;;;;;;;3.83;1.63;;;;;;;;;;10183639;29;20055;-84
2023/07/29 18:54:59;;;;;;;2.63;1.40;;;;;;;;;;10158419;29;20040;-84
2023/07/29 19:11:17;;;;;;;2.33;1.50;;;;;;;;;;10193147;29;20043;-84
2023/07/29 19:16:20;;;;;;;2.42;1.35;;;;;;;;;;10178453;29;20040;-83
2023/07/29 19:21:27;;;;;;;1.67;1.17;;;;;;;;;;10183918;29;20645;-83
2023/07/29 19:26:28;;;;;;;1.88;1.15;;;;;;;;;;10176463;29;20078;-83
2023/07/29 19:31:30;;;;;;;1.73;1.15;;;;;;;;;;10186657;29;20024;-85
2023/07/29 19:36:40;;;;;;;2.95;1.27;;;;;;;;;;10184637;29;20036;-84
2023/07/29 19:42:00;;;;;;;2.90;1.30;;;;;;;;;;10190206;29;20487;-83
2023/07/29 19:47:01;;;;;;;2.08;1.48;;;;;;;;;;10177868;29;20044;-85
2023/07/29 19:52:02;;;;;;;3.80;1.88;;;;;;;;;;10174920;29;20055;-86
2023/07/29 19:57:03;;;;;;;3.30;1.58;;;;;;;;;;10198083;29;20467;-85
2023/07/29 20:02:04;;;;;;;2.25;1.73;;;;;;;;;;10180451;29;20030;-84
2023/07/29 20:07:05;;;;;;;2.80;1.70;;;;;;;;;;10184113;29;20058;-85
2023/07/29 20:12:06;;;;;;;2.40;1.75;;;;;;;;;;10198590;29;20745;-84
2023/07/29 20:17:07;;;;;;;4.05;2.15;;;;;;;;;;10183617;29;20046;-85
2023/07/29 20:22:08;;;;;;;4.22;2.30;;;;;;;;;;10204398;29;20765;-84
2023/07/29 20:27:09;;;;;;;4.00;2.70;;;;;;;;;;10200845;29;20052;-84
2023/07/29 20:32:10;;;;;;;3.47;2.17;;;;;;;;;;10199147;29;20616;-85
2023/07/29 20:37:11;;;;;;;5.90;3.85;;;;;;;;;;10194393;29;20031;-85
2023/07/29 20:42:12;;;;;;;5.43;3.70;;;;;;;;;;10203353;29;20035;-85
2023/07/29 20:47:13;;;;;;;7.82;4.32;;;;;;;;;;10200939;29;20037;-86
2023/07/29 20:52:15;;;;;;;9.15;3.70;;;;;;;;;;10186261;29;20887;-85
2023/07/29 20:57:16;;;;;;;4.82;2.90;;;;;;;;;;10195246;29;20054;-86
2023/07/29 21:02:17;;;;;;;2.88;2.15;;;;;;;;;;10168656;29;20610;-86
2023/07/29 21:07:18;;;;;;;3.45;2.50;;;;;;;;;;10201913;29;20035;-87
2023/07/29 21:12:19;;;;;;;5.75;2.90;;;;;;;;;;10193952;29;20523;-87
2023/07/29 21:17:20;;;;;;;3.67;2.40;;;;;;;;;;10187922;29;20408;-87
2023/07/29 21:22:21;;;;;;;3.83;2.17;;;;;;;;;;10185743;29;20460;-86
2023/07/29 21:27:23;;;;;;;3.15;1.92;;;;;;;;;;10180195;29;20043;-86
2023/07/29 21:32:24;;;;;;;3.30;2.30;;;;;;;;;;10159510;29;20191;-85
2023/07/29 21:37:25;;;;;;;4.35;2.30;;;;;;;;;;10173462;29;20076;-85
2023/07/29 21:42:26;;;;;;;3.10;1.83;;;;;;;;;;10151214;29;20491;-86
2023/07/29 21:47:27;;;;;;;3.45;1.98;;;;;;;;;;10166132;29;20072;-86
2023/07/29 21:52:29;;;;;;;3.00;1.58;;;;;;;;;;10158910;29;20070;-86
2023/07/29 21:57:30;;;;;;;4.05;2.13;;;;;;;;;;10169101;29;20052;-86
2023/07/29 22:02:31;;;;;;;2.75;1.52;;;;;;;;;;10174625;29;20396;-84
2023/07/29 22:07:32;;;;;;;4.05;1.92;;;;;;;;;;10178942;29;20046;-86
2023/07/29 22:12:34;;;;;;;3.17;2.10;;;;;;;;;;10188724;29;20042;-85
2023/07/29 22:17:35;;;;;;;6.63;2.10;;;;;;;;;;10190528;29;20031;-87
2023/07/29 22:22:36;;;;;;;4.68;2.10;;;;;;;;;;10183680;29;20024;-84
2023/07/29 22:27:37;;;;;;;5.28;2.00;;;;;;;;;;10176164;29;20036;-85
2023/07/29 22:32:38;;;;;;;3.00;1.73;;;;;;;;;;10181753;29;20048;-89
2023/07/29 22:37:39;;;;;;;3.85;1.88;;;;;;;;;;10163791;29;20039;-85
2023/07/29 22:42:40;;;;;;;5.03;3.05;;;;;;;;;;10184016;29;20083;-86
2023/07/29 22:47:41;;;;;;;15.50;9.43;;;;;;;;;;10183525;29;20044;-87
2023/07/29 22:52:42;;;;;;;56.38;37.08;;;;;;;;;;10182608;29;20051;-85
2023/07/29 22:57:43;;;;;;;30.75;18.38;;;;;;;;;;10192365;29;20055;-85
2023/07/29 23:02:44;;;;;;;12.05;7.85;;;;;;;;;;10169528;29;20055;-86
2023/07/29 23:07:45;;;;;;;6.28;4.50;;;;;;;;;;10201049;29;20047;-87
2023/07/29 23:12:46;;;;;;;9.60;5.32;;;;;;;;;;10199423;29;20040;-86
2023/07/29 23:17:47;;;;;;;19.20;9.98;;;;;;;;;;10200771;29;20050;-87
2023/07/29 23:22:48;;;;;;;7.82;5.80;;;;;;;;;;10190115;29;20433;-87
2023/07/29 23:27:49;;;;;;;6.38;5.10;;;;;;;;;;10179714;29;20048;-87
2023/07/29 23:32:50;;;;;;;13.98;8.95;;;;;;;;;;10195635;29;20559;-87
2023/07/29 23:37:51;;;;;;;5.75;4.07;;;;;;;;;;10206689;29;20062;-87
2023/07/29 23:42:52;;;;;;;5.30;2.72;;;;;;;;;;10185010;29;20041;-88
2023/07/29 23:47:53;;;;;;;4.18;2.70;;;;;;;;;;10194323;29;20036;-88
2023/07/29 23:52:54;;;;;;;3.75;1.80;;;;;;;;;;10179286;29;20036;-87
2023/07/29 23:57:55;;;;;;;4.18;2.22;;;;;;;;;;10195199;29;20070;-87
